Time;durP1;ratioP1;P1;durP2;ratioP2;P2;SDS_P1;SDS_P2;PMS_P1;PMS_P2;Temp;Humidity;BMP_temperature;BMP_pressure;BME280_temperature;BME280_humidity;BME280_pressure;Samples;Min_cycle;Max_cycle;Signal;HPM_P1;HPM_P2
2022/02/11 00:00:53;;;;;;;12.20;5.60;;;7.00;95.90;;;;;;5034439;28;20029;-67
2022/02/11 00:08:24;;;;;;;11.73;5.38;;;7.00;96.50;;;;;;5033862;28;20035;-67
2022/02/11 00:10:50;;;;;;;10.65;5.43;;;7.00;96.60;;;;;;5027949;28;20407;-67
2022/02/11 00:13:16;;;;;;;9.68;5.88;;;7.00;96.60;;;;;;5028669;28;20121;-68
2022/02/11 00:15:43;;;;;;;12.50;4.93;;;7.00;96.60;;;;;;5032450;28;20030;-67
2022/02/11 00:18:14;;;;;;;13.82;5.60;;;6.90;96.90;;;;;;5032811;28;20030;-67
2022/02/11 00:20:50;;;;;;;9.55;4.78;;;6.90;96.80;;;;;;5034373;28;20025;-67
2022/02/11 00:23:18;;;;;;;9.43;5.50;;;6.80;97.10;;;;;;5032455;28;20052;-67
2022/02/11 00:26:00;;;;;;;11.13;4.75;;;6.70;97.40;;;;;;5034305;28;20695;-68
2022/02/11 00:33:40;;;;;;;11.50;4.70;;;6.30;98.00;;;;;;5033489;28;20026;-68
2022/02/11 00:36:11;;;;;;;9.07;5.03;;;6.20;98.00;;;;;;5035517;28;20079;-68
2022/02/11 00:39:00;;;;;;;10.23;4.90;;;6.10;98.00;;;;;;5032325;28;20025;-68
2022/02/11 01:03:01;;;;;;;9.80;5.95;;;5.70;98.00;;;;;;5028904;28;20104;-67
2022/02/11 01:05:26;;;;;;;10.82;5.95;;;5.60;98.00;;;;;;5033211;28;20022;-67
2022/02/11 01:07:53;;;;;;;11.20;5.15;;;5.60;98.00;;;;;;5034983;28;20416;-67
2022/02/11 01:10:22;;;;;;;11.23;6.00;;;5.60;98.00;;;;;;5033614;28;20034;-69
2022/02/11 01:12:48;;;;;;;11.07;5.63;;;5.50;98.00;;;;;;5034511;28;20362;-68
2022/02/11 01:15:14;;;;;;;12.45;5.97;;;5.50;98.00;;;;;;5033120;28;20034;-68
2022/02/11 01:17:54;;;;;;;11.57;5.97;;;5.50;98.00;;;;;;5030718;28;20033;-68
2022/02/11 01:20:29;;;;;;;12.70;5.97;;;5.50;98.00;;;;;;5033186;28;20032;-68
2022/02/11 01:33:38;;;;;;;13.07;6.55;;;5.40;98.00;;;;;;5035979;28;20037;-67
2022/02/11 01:36:40;;;;;;;13.18;6.95;;;5.40;98.00;;;;;;5036696;28;20037;-68
2022/02/11 01:42:52;;;;;;;;;;;5.30;98.00;;;;;;5038650;28;20133;-68
2022/02/11 02:50:20;;;;;;;19.60;12.32;;;4.50;98.00;;;;;;5032990;28;20036;-67
2022/02/11 02:58:29;;;;;;;24.15;13.65;;;4.50;98.00;;;;;;5031239;28;20036;-68
2022/02/11 04:55:00;;;;;;;5.63;3.20;;;2.80;92.00;;;;;;5034196;28;20335;-69
2022/02/11 05:00:14;;;;;;;3.90;2.20;;;1.60;96.40;;;;;;5033862;28;20044;-69
2022/02/11 05:02:45;;;;;;;8.43;3.83;;;1.10;95.60;;;;;;5032214;28;20026;-69
2022/02/11 05:05:11;;;;;;;11.43;4.00;;;0.80;94.80;;;;;;5036269;28;20019;-68
2022/02/11 05:07:37;;;;;;;11.85;4.85;;;0.70;93.70;;;;;;5038329;28;20433;-68
2022/02/11 05:10:05;;;;;;;7.10;4.07;;;0.70;93.20;;;;;;5038113;28;20044;-68
2022/02/11 05:12:31;;;;;;;6.72;3.83;;;0.70;93.00;;;;;;5037240;28;20041;-68
2022/02/11 05:14:56;;;;;;;5.45;3.67;;;0.60;92.70;;;;;;5036505;28;20032;-67
2022/02/11 05:17:25;;;;;;;6.55;4.28;;;0.60;92.70;;;;;;5036541;28;20339;-68
2022/02/11 05:19:51;;;;;;;6.97;4.35;;;0.60;92.30;;;;;;5034409;28;20435;-67
2022/02/11 05:22:16;;;;;;;8.20;5.28;;;0.60;91.80;;;;;;5032773;28;20049;-68
2022/02/11 05:24:42;;;;;;;9.30;5.72;;;0.60;91.60;;;;;;5038410;28;20019;-68
2022/02/11 05:27:08;;;;;;;8.65;5.38;;;0.50;91.60;;;;;;5038272;28;20032;-68
2022/02/11 05:29:33;;;;;;;11.40;6.88;;;0.50;91.00;;;;;;5054097;28;20036;-68
2022/02/11 05:31:59;;;;;;;13.82;7.55;;;0.50;90.80;;;;;;5035512;28;20037;-69
2022/02/11 05:34:24;;;;;;;13.85;8.43;;;0.50;90.20;;;;;;5034883;28;20718;-68
2022/02/11 05:36:50;;;;;;;13.93;9.07;;;0.50;90.40;;;;;;5036911;28;20025;-69
2022/02/11 05:39:16;;;;;;;13.43;8.35;;;0.50;90.40;;;;;;5033403;28;20025;-68
2022/02/11 05:41:42;;;;;;;15.20;9.05;;;0.50;89.80;;;;;;5029722;28;20120;-68
2022/02/11 05:44:08;;;;;;;14.77;8.85;;;0.50;89.40;;;;;;5035005;28;20063;-68
2022/02/11 05:46:34;;;;;;;15.35;9.65;;;0.50;89.30;;;;;;5032334;28;20041;-68
2022/02/11 05:49:00;;;;;;;14.93;8.85;;;0.50;89.20;;;;;;5053465;28;20021;-68
2022/02/11 05:51:26;;;;;;;16.35;9.20;;;0.50;88.80;;;;;;5038258;28;20048;-67
2022/02/11 05:53:55;;;;;;;16.40;8.93;;;0.50;88.80;;;;;;5033396;28;20026;-68
2022/02/11 05:56:20;;;;;;;16.00;8.10;;;0.50;88.70;;;;;;5029718;28;20118;-68
2022/02/11 05:58:46;;;;;;;12.48;8.05;;;0.50;88.00;;;;;;5031114;28;20025;-68
2022/02/11 06:01:12;;;;;;;20.42;10.43;;;0.50;88.20;;;;;;5032760;28;20307;-68
2022/02/11 06:03:37;;;;;;;13.68;8.52;;;0.50;88.20;;;;;;5027142;28;20025;-67
2022/02/11 06:06:03;;;;;;;11.07;7.28;;;0.50;88.00;;;;;;5027122;28;20025;-67
2022/02/11 06:08:29;;;;;;;13.88;7.97;;;0.50;87.60;;;;;;5029411;28;20091;-67
2022/02/11 06:10:56;;;;;;;11.48;7.45;;;0.50;87.90;;;;;;5030130;28;20037;-68
2022/02/11 06:13:22;;;;;;;13.95;8.00;;;0.60;87.90;;;;;;5033086;28;20037;-68
2022/02/11 06:15:48;;;;;;;13.93;7.28;;;0.50;87.90;;;;;;5032369;28;20026;-68
2022/02/11 06:18:14;;;;;;;11.35;7.20;;;0.60;88.00;;;;;;5034533;28;20033;-68
2022/02/11 06:20:40;;;;;;;15.05;8.35;;;0.50;88.10;;;;;;5034274;28;20151;-68
2022/02/11 06:23:06;;;;;;;13.80;7.43;;;0.60;87.70;;;;;;5033175;28;20450;-68
2022/02/11 06:25:32;;;;;;;15.07;8.30;;;0.60;88.50;;;;;;5034341;28;20021;-68
2022/02/11 06:27:57;;;;;;;13.98;8.10;;;0.60;88.50;;;;;;5035781;28;20033;-67
2022/02/11 06:30:23;;;;;;;12.80;8.18;;;0.50;88.80;;;;;;5035779;28;20017;-69
2022/02/11 06:32:49;;;;;;;12.65;8.60;;;0.50;88.90;;;;;;5033203;28;20037;-68
2022/02/11 06:35:15;;;;;;;13.48;8.95;;;0.50;89.50;;;;;;5035430;28;20112;-68
2022/02/11 06:37:48;;;;;;;13.40;8.93;;;0.50;89.60;;;;;;5035142;28;20025;-68
2022/02/11 06:40:15;;;;;;;15.88;9.80;;;0.50;89.50;;;;;;5035427;28;20120;-69
2022/02/11 06:42:42;;;;;;;14.63;9.30;;;0.50;89.50;;;;;;5034405;28;20041;-69
2022/02/11 06:45:08;;;;;;;12.95;8.80;;;0.50;89.20;;;;;;5035353;28;20452;-68
2022/02/11 06:47:37;;;;;;;14.48;10.15;;;0.50;89.80;;;;;;5033638;28;20029;-68
2022/02/11 06:50:03;;;;;;;14.20;9.50;;;0.50;89.60;;;;;;5034724;28;20037;-67
2022/02/11 06:52:29;;;;;;;16.73;9.95;;;0.50;89.70;;;;;;5034395;28;20029;-67
2022/02/11 06:54:55;;;;;;;14.15;9.13;;;0.50;90.00;;;;;;5046731;28;20030;-66
2022/02/11 06:57:20;;;;;;;16.83;9.30;;;0.50;89.80;;;;;;5035398;28;20022;-67
2022/02/11 06:59:46;;;;;;;14.45;9.60;;;0.50;90.00;;;;;;5033289;28;20060;-67
2022/02/11 07:02:19;;;;;;;16.75;10.15;;;0.50;90.00;;;;;;5033726;28;20061;-68
2022/02/11 07:04:45;;;;;;;16.83;9.88;;;0.50;90.50;;;;;;5033248;28;20426;-67
2022/02/11 07:07:11;;;;;;;22.20;10.88;;;0.50;90.40;;;;;;5034826;28;20108;-68
2022/02/11 07:09:40;;;;;;;19.38;11.73;;;0.40;90.60;;;;;;5034923;28;20147;-67
2022/02/11 07:12:06;;;;;;;26.13;12.57;;;0.40;90.50;;;;;;5032863;28;20029;-68
2022/02/11 07:14:32;;;;;;;25.50;13.77;;;0.40;89.90;;;;;;5034132;28;20079;-68
2022/02/11 07:16:57;;;;;;;30.23;15.88;;;0.40;90.40;;;;;;5031848;28;20327;-68
2022/02/11 07:19:23;;;;;;;20.85;12.10;;;0.30;89.90;;;;;;5034414;28;20053;-67
2022/02/11 07:21:49;;;;;;;24.10;13.85;;;0.40;89.40;;;;;;5032343;28;20021;-68
2022/02/11 07:24:14;;;;;;;24.00;14.88;;;0.40;89.50;;;;;;5033706;28;20330;-68
2022/02/11 07:26:40;;;;;;;22.70;13.70;;;0.30;90.00;;;;;;5033417;28;20096;-68
2022/02/11 07:29:06;;;;;;;119.60;41.38;;;0.30;88.70;;;;;;5033427;28;20393;-68
2022/02/11 07:31:32;;;;;;;27.33;15.40;;;0.40;88.30;;;;;;5025599;28;20038;-67
2022/02/11 07:33:58;;;;;;;24.27;14.98;;;0.40;88.70;;;;;;5030814;28;20033;-68
2022/02/11 07:36:24;;;;;;;28.98;16.77;;;0.40;88.40;;;;;;5031293;28;20337;-67
2022/02/11 07:38:50;;;;;;;28.20;15.98;;;0.30;88.90;;;;;;5030035;28;20029;-68
2022/02/11 07:41:17;;;;;;;31.98;19.25;;;0.30;88.60;;;;;;5029333;28;20041;-67
2022/02/11 07:43:45;;;;;;;44.10;26.02;;;0.20;88.70;;;;;;5027287;28;20030;-67
2022/02/11 07:46:11;;;;;;;33.67;20.63;;;0.20;88.20;;;;;;5030967;28;20021;-68
2022/02/11 07:48:37;;;;;;;41.15;25.52;;;0.30;87.40;;;;;;5031041;28;20030;-67
2022/02/11 07:51:03;;;;;;;35.67;20.55;;;0.30;87.40;;;;;;5030279;28;20039;-67
2022/02/11 07:53:28;;;;;;;25.73;17.25;;;0.30;87.30;;;;;;5028567;28;20025;-68
2022/02/11 07:55:54;;;;;;;24.83;15.63;;;0.40;87.10;;;;;;5029342;28;20039;-68
2022/02/11 07:58:24;;;;;;;24.17;15.52;;;0.40;87.30;;;;;;5028161;28;20033;-67
2022/02/11 08:00:49;;;;;;;20.52;13.40;;;0.50;87.00;;;;;;5028248;28;20112;-68
2022/02/11 08:03:15;;;;;;;28.05;17.42;;;0.50;87.30;;;;;;5026279;28;20105;-68
2022/02/11 08:05:43;;;;;;;31.70;18.23;;;0.60;87.20;;;;;;5028325;28;20704;-68
2022/02/11 08:08:12;;;;;;;32.53;19.52;;;0.50;87.70;;;;;;5027349;28;20036;-68
2022/02/11 08:10:37;;;;;;;23.20;15.32;;;0.60;87.60;;;;;;5029828;28;20036;-67
2022/02/11 08:13:03;;;;;;;23.75;13.90;;;0.60;87.30;;;;;;5027558;28;20033;-68
2022/02/11 08:15:29;;;;;;;24.58;15.68;;;0.60;87.40;;;;;;5029584;28;20029;-67
2022/02/11 08:17:54;;;;;;;26.98;14.07;;;0.60;87.60;;;;;;5030618;28;20029;-68
2022/02/11 08:20:20;;;;;;;22.10;13.27;;;0.60;88.20;;;;;;5032910;28;20433;-68
2022/02/11 08:22:46;;;;;;;26.45;15.98;;;0.60;87.60;;;;;;5033611;28;20057;-68
2022/02/11 08:25:11;;;;;;;23.25;13.98;;;0.60;88.00;;;;;;5033187;28;20033;-68
2022/02/11 08:27:40;;;;;;;16.48;11.10;;;0.60;88.20;;;;;;5032785;28;20025;-68
2022/02/11 08:30:06;;;;;;;17.42;9.43;;;0.70;88.20;;;;;;5026465;28;20022;-67
2022/02/11 08:32:32;;;;;;;20.35;11.32;;;0.90;87.80;;;;;;5021574;28;20053;-69
2022/02/11 08:34:58;;;;;;;12.45;7.20;;;1.30;89.00;;;;;;5034190;28;20064;-68
2022/02/11 08:37:25;;;;;;;12.60;8.50;;;1.40;95.00;;;;;;5031488;28;20117;-68
2022/02/11 08:39:51;;;;;;;13.63;7.13;;;1.40;97.10;;;;;;5031727;28;20415;-68
2022/02/11 08:42:19;;;;;;;14.55;8.57;;;1.30;98.00;;;;;;5031453;28;20046;-68
2022/02/11 08:44:44;;;;;;;11.65;6.72;;;1.30;98.00;;;;;;5033509;28;20036;-68
2022/02/11 08:47:10;;;;;;;10.40;6.40;;;1.20;98.00;;;;;;5034263;28;20108;-68
2022/02/11 08:49:38;;;;;;;12.52;6.03;;;1.50;98.00;;;;;;5035321;28;20104;-70
2022/02/11 08:52:04;;;;;;;10.40;4.70;;;2.20;98.00;;;;;;5052525;28;20053;-69
2022/02/11 08:54:30;;;;;;;8.70;4.53;;;2.90;98.00;;;;;;5035830;28;20029;-68
2022/02/11 08:56:55;;;;;;;8.85;5.35;;;3.50;98.00;;;;;;5037084;28;20029;-69
2022/02/11 08:59:21;;;;;;;11.48;3.78;;;4.20;98.00;;;;;;5037729;28;20034;-67
2022/02/11 09:01:47;;;;;;;12.02;5.00;;;4.70;97.10;;;;;;5035292;28;20104;-68
2022/02/11 09:04:13;;;;;;;8.35;3.90;;;4.90;96.90;;;;;;5037120;28;20018;-68
2022/02/11 09:06:39;;;;;;;9.70;3.90;;;4.90;94.70;;;;;;5036335;28;20028;-68
2022/02/11 09:09:04;;;;;;;8.73;3.97;;;4.70;94.70;;;;;;5036944;28;20318;-68
2022/02/11 09:11:31;;;;;;;8.05;3.80;;;4.40;94.90;;;;;;5035820;28;20021;-68
2022/02/11 09:13:57;;;;;;;9.15;3.78;;;4.60;95.80;;;;;;5037058;28;20498;-67
2022/02/11 09:16:23;;;;;;;13.40;4.00;;;4.60;93.20;;;;;;5037527;28;20088;-68
2022/02/11 09:18:48;;;;;;;12.38;4.80;;;3.80;94.70;;;;;;5035385;28;20028;-68
2022/02/11 09:21:14;;;;;;;9.45;4.07;;;3.00;96.40;;;;;;5037047;28;20445;-67
2022/02/11 09:23:40;;;;;;;9.15;4.70;;;2.30;96.50;;;;;;5036484;28;20034;-67
2022/02/11 09:26:06;;;;;;;12.90;4.65;;;1.90;97.70;;;;;;5036834;28;20026;-67
2022/02/11 09:28:32;;;;;;;13.45;5.72;;;1.80;98.00;;;;;;5035212;28;20029;-68
2022/02/11 09:30:58;;;;;;;11.52;4.40;;;1.90;98.00;;;;;;5036912;28;20037;-68
2022/02/11 09:33:25;;;;;;;12.00;5.20;;;2.10;98.00;;;;;;5035677;28;20032;-68
2022/02/11 09:35:50;;;;;;;14.10;6.75;;;2.10;98.00;;;;;;5031667;28;20060;-68
2022/02/11 09:38:19;;;;;;;10.05;4.97;;;2.20;98.00;;;;;;5028825;28;20382;-68
2022/02/11 09:40:50;;;;;;;11.30;5.10;;;2.30;98.00;;;;;;5035595;28;20488;-68
2022/02/11 09:43:27;;;;;;;13.27;6.43;;;2.30;98.00;;;;;;5036673;28;20021;-67
2022/02/11 09:45:55;;;;;;;11.20;4.78;;;2.30;98.00;;;;;;5036414;28;20104;-67
2022/02/11 09:48:23;;;;;;;8.18;4.60;;;2.20;97.30;;;;;;5035374;28;20025;-66
2022/02/11 09:50:56;;;;;;;14.90;7.10;;;2.20;96.60;;;;;;5035247;28;20021;-67
2022/02/11 09:53:26;;;;;;;14.98;6.53;;;2.10;97.00;;;;;;5036583;28;20061;-67
2022/02/11 09:55:52;;;;;;;12.95;5.40;;;2.00;97.10;;;;;;5035860;28;20056;-69
2022/02/11 09:58:18;;;;;;;11.60;5.25;;;2.50;97.20;;;;;;5035685;28;20423;-68
2022/02/11 10:00:49;;;;;;;11.20;3.63;;;3.60;93.80;;;;;;5035465;28;20021;-68
2022/02/11 10:03:19;;;;;;;6.70;3.15;;;4.60;90.80;;;;;;5035547;28;20017;-69
2022/02/11 10:05:47;;;;;;;9.82;3.70;;;5.30;87.80;;;;;;5033642;28;21552;-69
2022/02/11 10:08:16;;;;;;;8.43;3.83;;;5.20;87.20;;;;;;5036356;28;20017;-68
2022/02/11 10:10:44;;;;;;;9.75;3.90;;;4.40;89.30;;;;;;5035529;28;20029;-68
2022/02/11 10:13:12;;;;;;;10.45;3.88;;;4.10;90.50;;;;;;5035002;28;20017;-68
2022/02/11 10:15:43;;;;;;;9.25;3.35;;;4.60;89.40;;;;;;5035799;28;20060;-68
2022/02/11 10:18:11;;;;;;;8.30;3.28;;;5.00;87.00;;;;;;5033671;28;20021;-68
2022/02/11 10:20:40;;;;;;;7.47;2.65;;;5.30;86.60;;;;;;5015905;28;20018;-68
2022/02/11 10:23:26;;;;;;;11.63;2.95;;;5.80;85.20;;;;;;5033459;28;20037;-68
2022/02/11 10:26:06;;;;;;;10.88;4.15;;;5.50;82.20;;;;;;5035149;28;20450;-68
2022/02/11 10:28:35;;;;;;;7.38;3.53;;;5.60;83.50;;;;;;5034210;28;20403;-68
2022/02/11 10:31:07;;;;;;;9.48;3.35;;;5.60;81.80;;;;;;5035437;28;20333;-68
2022/02/11 10:33:54;;;;;;;11.43;3.60;;;5.80;83.50;;;;;;5032513;28;20120;-68
2022/02/11 10:36:47;;;;;;;11.27;4.30;;;6.40;82.70;;;;;;5029282;28;20315;-67
2022/02/11 10:39:22;;;;;;;11.52;4.25;;;6.40;79.80;;;;;;5034779;28;20369;-69
2022/02/11 10:41:49;;;;;;;12.60;3.78;;;6.00;81.40;;;;;;5035155;28;20076;-68
2022/02/11 10:44:18;;;;;;;7.93;3.85;;;5.60;82.70;;;;;;5035286;28;20091;-68
2022/02/11 10:46:52;;;;;;;9.88;3.80;;;5.50;83.30;;;;;;5033904;28;20429;-67
2022/02/11 10:49:28;;;;;;;6.47;3.40;;;4.90;82.20;;;;;;5031485;28;20463;-67
2022/02/11 10:51:54;;;;;;;7.15;3.15;;;4.50;85.70;;;;;;5015937;28;20026;-67
2022/02/11 10:54:29;;;;;;;9.43;3.20;;;5.00;83.90;;;;;;5021705;28;20018;-68
2022/02/11 10:56:59;;;;;;;10.60;4.95;;;5.90;82.10;;;;;;5031181;28;20125;-68
2022/02/11 10:59:26;;;;;;;15.13;6.32;;;5.20;80.60;;;;;;5035060;28;20030;-68
2022/02/11 11:02:19;;;;;;;17.00;7.88;;;5.60;82.80;;;;;;5033085;28;20017;-68
2022/02/11 11:04:47;;;;;;;12.10;4.20;;;6.60;80.90;;;;;;5032844;28;20039;-68
2022/02/11 11:07:21;;;;;;;32.00;20.90;;;5.90;79.80;;;;;;5048718;28;20057;-67
2022/02/11 11:09:48;;;;;;;15.57;7.38;;;5.50;82.70;;;;;;5048793;28;20296;-67
2022/02/11 11:12:15;;;;;;;14.32;8.40;;;5.00;82.90;;;;;;5034616;28;20035;-68
2022/02/11 11:14:42;;;;;;;8.18;3.80;;;4.60;84.60;;;;;;5034393;28;20018;-68
2022/02/11 11:17:08;;;;;;;16.23;9.45;;;4.40;85.10;;;;;;5032888;28;20037;-68
2022/02/11 11:19:36;;;;;;;27.17;17.50;;;4.40;85.00;;;;;;5029771;28;20093;-68
2022/02/11 11:22:16;;;;;;;9.77;4.75;;;4.10;85.20;;;;;;5033195;28;20083;-67
2022/02/11 11:24:53;;;;;;;10.65;4.70;;;4.10;86.20;;;;;;5069295;28;20448;-66
2022/02/11 11:27:41;;;;;;;11.02;5.25;;;3.90;86.10;;;;;;5070273;28;20023;-66
2022/02/11 11:30:24;;;;;;;10.15;4.20;;;3.90;86.90;;;;;;5064332;28;20344;-66
2022/02/11 11:33:11;;;;;;;9.35;3.55;;;3.90;86.20;;;;;;5070398;28;20025;-67
2022/02/11 11:35:41;;;;;;;8.75;3.50;;;4.10;86.50;;;;;;5069641;28;20017;-66
2022/02/11 11:38:14;;;;;;;7.95;3.22;;;4.20;86.10;;;;;;5056153;28;20068;-66
2022/02/11 11:40:54;;;;;;;17.70;3.78;;;4.40;85.90;;;;;;5060962;28;20053;-66
2022/02/11 11:43:51;;;;;;;9.15;3.45;;;4.80;85.70;;;;;;5084674;28;20023;-66
2022/02/11 11:46:16;;;;;;;10.13;3.95;;;4.80;84.50;;;;;;5067801;28;20417;-67
2022/02/11 11:49:03;;;;;;;9.27;3.80;;;4.70;84.70;;;;;;5061164;28;20079;-66
2022/02/11 11:51:35;;;;;;;10.40;3.83;;;4.20;85.60;;;;;;5066741;28;20333;-66
2022/02/11 11:54:21;;;;;;;15.68;4.25;;;4.10;86.90;;;;;;5062056;28;20030;-66
2022/02/11 11:57:08;;;;;;;11.13;4.97;;;4.40;87.50;;;;;;5068680;28;20422;-66
2022/02/11 11:59:46;;;;;;;12.90;5.95;;;4.70;86.00;;;;;;5066134;28;20021;-66
2022/02/11 12:02:20;;;;;;;12.73;5.65;;;4.90;85.00;;;;;;5059590;28;20039;-67
2022/02/11 12:04:54;;;;;;;8.90;3.78;;;5.00;84.80;;;;;;5063006;28;20047;-67
2022/02/11 12:07:35;;;;;;;16.02;7.28;;;4.50;84.20;;;;;;5066139;28;20025;-66
2022/02/11 12:10:05;;;;;;;10.00;4.00;;;4.30;85.90;;;;;;5067132;28;20111;-67
2022/02/11 12:12:33;;;;;;;8.77;3.85;;;4.10;86.80;;;;;;5069307;28;20024;-66
2022/02/11 12:15:02;;;;;;;8.15;3.97;;;4.00;85.80;;;;;;5069717;28;20055;-67
2022/02/11 12:17:29;;;;;;;9.82;4.72;;;3.80;86.50;;;;;;5068691;28;20299;-66
2022/02/11 12:19:56;;;;;;;10.00;4.70;;;3.70;87.10;;;;;;5069714;28;20033;-67
2022/02/11 12:22:31;;;;;;;11.57;4.38;;;3.60;87.50;;;;;;5068663;28;20040;-66
2022/02/11 12:27:46;;;;;;;13.30;4.78;;;3.40;88.30;;;;;;5069401;28;20111;-66
2022/02/11 12:30:25;;;;;;;15.13;6.25;;;3.20;88.90;;;;;;5069976;28;20647;-66
2022/02/11 12:32:56;;;;;;;13.05;5.97;;;3.20;90.10;;;;;;5066869;28;20029;-66
2022/02/11 12:35:32;;;;;;;16.95;6.63;;;3.20;90.20;;;;;;5060709;28;20057;-66
2022/02/11 12:38:02;;;;;;;12.15;3.95;;;3.30;90.00;;;;;;5056700;28;20052;-66
2022/02/11 12:40:31;;;;;;;14.02;6.85;;;3.10;89.50;;;;;;5056057;28;20051;-65
2022/02/11 12:42:59;;;;;;;15.35;6.07;;;3.10;90.30;;;;;;5056280;28;20414;-65
2022/02/11 12:45:29;;;;;;;10.20;3.92;;;3.00;90.70;;;;;;5056653;28;20035;-65
2022/02/11 12:47:55;;;;;;;10.63;4.75;;;3.00;90.90;;;;;;5055172;28;20098;-66
2022/02/11 12:50:38;;;;;;;13.70;6.25;;;2.90;91.50;;;;;;5056646;28;20032;-67
2022/02/11 12:53:09;;;;;;;17.42;5.90;;;2.80;91.90;;;;;;5052677;28;20032;-68
2022/02/11 12:55:37;;;;;;;17.13;9.05;;;2.90;92.00;;;;;;5054709;28;20068;-66
2022/02/11 12:58:06;;;;;;;14.32;5.53;;;2.90;93.10;;;;;;5055651;28;20036;-68
2022/02/11 13:00:34;;;;;;;17.70;7.32;;;3.10;92.20;;;;;;5055416;28;20075;-68
2022/02/11 13:03:02;;;;;;;18.60;7.50;;;3.10;91.70;;;;;;5052596;28;20143;-66
2022/02/11 13:05:30;;;;;;;12.75;6.68;;;3.10;91.30;;;;;;5055274;28;20021;-66
2022/02/11 13:07:58;;;;;;;15.15;5.75;;;3.10;91.70;;;;;;5055410;28;20025;-66
2022/02/11 13:10:32;;;;;;;15.57;6.40;;;3.20;91.20;;;;;;5056084;28;20025;-66
2022/02/11 13:13:01;;;;;;;13.13;5.70;;;3.30;90.30;;;;;;5049510;28;20029;-67
2022/02/11 13:15:32;;;;;;;12.38;4.60;;;3.30;90.20;;;;;;5054898;28;20349;-67
2022/02/11 13:18:12;;;;;;;13.52;5.93;;;3.40;90.10;;;;;;5052870;28;20025;-67
2022/02/11 13:20:49;;;;;;;16.75;9.13;;;3.30;89.70;;;;;;5038003;28;20060;-66
2022/02/11 13:23:22;;;;;;;84.60;36.35;;;3.10;90.00;;;;;;5049867;28;20041;-66
2022/02/11 13:25:55;;;;;;;66.05;29.17;;;3.10;90.70;;;;;;5053155;28;20037;-66
2022/02/11 13:28:22;;;;;;;82.50;44.47;;;3.00;91.30;;;;;;5054786;28;20025;-66
2022/02/11 13:31:03;;;;;;;12.80;6.22;;;3.00;91.60;;;;;;5049568;28;20054;-66
2022/02/11 13:33:31;;;;;;;11.65;5.72;;;3.00;91.60;;;;;;5051000;28;20046;-67
2022/02/11 13:36:05;;;;;;;9.70;5.28;;;2.90;91.50;;;;;;5052834;28;20044;-67
2022/02/11 13:38:36;;;;;;;11.02;5.05;;;2.90;91.90;;;;;;5053092;28;20081;-67
2022/02/11 13:41:08;;;;;;;8.55;4.43;;;2.90;92.10;;;;;;5052778;28;20373;-66
2022/02/11 13:44:08;;;;;;;11.82;5.20;;;2.90;91.30;;;;;;5053598;28;20134;-68
2022/02/11 13:46:35;;;;;;;10.88;6.07;;;2.90;91.10;;;;;;5051693;28;20021;-66
2022/02/11 13:49:06;;;;;;;12.75;7.45;;;2.90;90.40;;;;;;5052942;28;20028;-66
2022/02/11 13:51:33;;;;;;;7.80;3.80;;;3.00;90.60;;;;;;5053629;28;20314;-67
2022/02/11 13:54:12;;;;;;;10.77;4.38;;;3.10;90.10;;;;;;5041882;28;20055;-67
2022/02/11 13:56:48;;;;;;;18.58;8.02;;;3.10;89.60;;;;;;5054759;28;20044;-67
2022/02/11 13:59:25;;;;;;;17.42;6.47;;;3.30;89.90;;;;;;5053928;28;20021;-67
2022/02/11 14:01:52;;;;;;;11.65;5.10;;;3.50;89.40;;;;;;5048383;28;20055;-67
2022/02/11 14:04:21;;;;;;;15.25;6.82;;;3.60;89.20;;;;;;5054183;28;20103;-66
2022/02/11 14:07:03;;;;;;;10.80;5.28;;;3.60;88.90;;;;;;5053637;28;20029;-66
2022/02/11 14:09:37;;;;;;;7.60;4.45;;;3.70;88.90;;;;;;5054414;28;20063;-66
2022/02/11 14:12:03;;;;;;;;;;;3.90;88.30;;;;;;5053508;28;20052;-68
2022/02/11 14:14:38;;;;;;;12.57;5.78;;;3.90;88.40;;;;;;5049326;28;19909;-67
2022/02/11 14:17:06;;;;;;;11.15;4.20;;;4.10;88.20;;;;;;5054168;28;20300;-66
2022/02/11 14:19:39;;;;;;;9.02;4.10;;;4.10;87.80;;;;;;5053408;28;20420;-66
2022/02/11 14:22:05;;;;;;;8.85;4.10;;;3.90;87.40;;;;;;5051430;28;20033;-66
2022/02/11 14:24:30;;;;;;;8.48;4.25;;;3.70;88.20;;;;;;5053904;28;20339;-67
2022/02/11 14:26:56;;;;;;;10.32;5.10;;;3.60;88.60;;;;;;5054728;28;20025;-66
2022/02/11 14:29:26;;;;;;;11.52;4.90;;;3.40;88.80;;;;;;5054123;28;20425;-66
2022/02/11 14:35:03;;;;;;;13.00;6.60;;;3.40;88.90;;;;;;5054030;28;20099;-65
2022/02/11 14:37:29;;;;;;;33.50;17.88;;;3.60;89.30;;;;;;5054471;28;20079;-66
2022/02/11 14:39:55;;;;;;;33.47;18.15;;;3.60;88.30;;;;;;5053691;28;20436;-65
2022/02/11 14:42:20;;;;;;;12.07;6.63;;;3.60;88.20;;;;;;5053697;28;20108;-66
2022/02/11 14:44:46;;;;;;;11.85;5.20;;;3.60;88.10;;;;;;5053881;28;20032;-66
2022/02/11 14:47:13;;;;;;;8.38;4.30;;;3.70;87.90;;;;;;5053403;28;20021;-67
2022/02/11 14:49:41;;;;;;;11.10;3.53;;;3.70;87.50;;;;;;5053802;28;20021;-67
2022/02/11 14:52:13;;;;;;;8.05;3.85;;;3.60;87.60;;;;;;5050555;28;20104;-67
2022/02/11 14:54:39;;;;;;;12.20;5.57;;;3.60;88.50;;;;;;5035727;28;20018;-67
2022/02/11 14:57:07;;;;;;;13.20;6.47;;;3.50;88.30;;;;;;5051497;28;20031;-67
2022/02/11 14:59:32;;;;;;;7.30;3.97;;;3.50;88.80;;;;;;5050720;28;20114;-67
2022/02/11 15:01:58;;;;;;;11.18;4.85;;;3.80;88.60;;;;;;5040679;28;20544;-67
2022/02/11 15:04:24;;;;;;;12.88;6.13;;;4.30;86.80;;;;;;5050378;28;20401;-67
2022/02/11 15:06:52;;;;;;;14.48;7.07;;;4.80;84.80;;;;;;5053873;28;20126;-67
2022/02/11 15:09:20;;;;;;;10.57;4.50;;;4.40;84.50;;;;;;5055369;28;20115;-67
2022/02/11 15:11:51;;;;;;;7.85;3.92;;;4.20;86.10;;;;;;5054385;28;20501;-66
2022/02/11 15:14:21;;;;;;;16.60;9.10;;;4.10;85.60;;;;;;5055498;28;20033;-67
2022/02/11 15:16:46;;;;;;;14.98;6.40;;;3.90;86.10;;;;;;5053946;28;20028;-67
2022/02/11 15:19:12;;;;;;;15.57;6.32;;;3.90;85.70;;;;;;5047816;28;20033;-67
2022/02/11 15:21:41;;;;;;;12.35;5.22;;;3.90;85.20;;;;;;5054249;28;20036;-66
2022/02/11 15:24:08;;;;;;;15.05;6.35;;;4.30;84.70;;;;;;5038339;28;20060;-67
2022/02/11 15:26:34;;;;;;;8.98;4.00;;;4.80;83.30;;;;;;5034988;28;20402;-67
2022/02/11 15:28:59;;;;;;;7.85;3.95;;;4.80;82.80;;;;;;5041762;28;20091;-67
2022/02/11 15:31:25;;;;;;;11.98;4.00;;;4.70;82.70;;;;;;5042112;28;20110;-66
2022/02/11 15:33:51;;;;;;;10.32;5.07;;;5.10;82.20;;;;;;5040044;28;20032;-67
2022/02/11 15:36:17;;;;;;;14.23;5.07;;;5.20;80.60;;;;;;5044000;28;20025;-66
2022/02/11 15:38:43;;;;;;;14.30;7.70;;;5.10;80.30;;;;;;5051871;28;20040;-66
2022/02/11 15:41:10;;;;;;;17.27;5.53;;;5.10;80.30;;;;;;5034016;28;20104;-66
2022/02/11 15:43:40;;;;;;;12.57;5.40;;;5.40;80.00;;;;;;5044489;28;20075;-68
2022/02/11 15:46:09;;;;;;;19.33;8.13;;;5.50;78.60;;;;;;5052260;28;20029;-66
2022/02/11 15:48:39;;;;;;;11.55;5.70;;;5.40;78.10;;;;;;5051314;28;20027;-68
2022/02/11 15:51:05;;;;;;;13.02;5.35;;;5.10;78.30;;;;;;5052342;28;20075;-67
2022/02/11 15:53:31;;;;;;;11.45;4.45;;;5.10;78.90;;;;;;5052316;28;20421;-67
2022/02/11 15:55:57;;;;;;;14.57;5.78;;;5.20;78.90;;;;;;5052254;28;20075;-67
2022/02/11 15:58:23;;;;;;;9.00;4.55;;;5.00;79.30;;;;;;5044724;28;20030;-67
2022/02/11 16:00:50;;;;;;;12.77;4.28;;;5.00;79.80;;;;;;5051506;28;20547;-67
2022/02/11 16:03:26;;;;;;;11.20;4.40;;;4.80;80.10;;;;;;5046691;28;20033;-66
2022/02/11 16:05:57;;;;;;;9.77;4.70;;;4.80;80.30;;;;;;5041240;28;20116;-67
2022/02/11 16:08:23;;;;;;;14.32;5.82;;;5.00;80.10;;;;;;5051565;28;20048;-67
2022/02/11 16:10:49;;;;;;;11.15;4.53;;;4.90;80.00;;;;;;5054140;28;20017;-67
2022/02/11 16:13:14;;;;;;;9.07;3.60;;;4.90;80.70;;;;;;5042286;28;20087;-66
2022/02/11 16:15:41;;;;;;;9.35;4.03;;;4.90;80.80;;;;;;5051569;28;20041;-67
2022/02/11 16:18:14;;;;;;;11.75;4.53;;;5.00;80.20;;;;;;5051878;28;20402;-67
2022/02/11 16:20:42;;;;;;;8.77;4.10;;;4.70;80.20;;;;;;5043712;28;20053;-67
2022/02/11 16:23:10;;;;;;;12.25;5.88;;;4.60;80.90;;;;;;5053752;28;20041;-67
2022/02/11 16:25:37;;;;;;;7.40;3.88;;;4.40;81.30;;;;;;5054463;28;20326;-67
2022/02/11 16:28:05;;;;;;;10.18;4.20;;;4.20;81.50;;;;;;5055756;28;20031;-67
2022/02/11 16:30:31;;;;;;;9.57;3.35;;;3.90;82.80;;;;;;5052698;28;20032;-67
2022/02/11 16:32:59;;;;;;;11.73;6.40;;;3.60;83.80;;;;;;5051456;28;20040;-67
2022/02/11 16:35:27;;;;;;;14.35;5.40;;;3.30;85.00;;;;;;5055121;28;20032;-67
2022/02/11 16:37:53;;;;;;;16.05;7.53;;;3.10;85.90;;;;;;5054516;28;20085;-66
2022/02/11 16:40:19;;;;;;;14.50;5.72;;;3.00;87.00;;;;;;5055295;28;20040;-67
2022/02/11 16:42:45;;;;;;;11.50;5.32;;;2.90;87.40;;;;;;5055023;28;20033;-66
2022/02/11 16:45:11;;;;;;;18.02;8.38;;;2.80;87.60;;;;;;5055162;28;20071;-67
2022/02/11 16:47:38;;;;;;;17.52;6.28;;;2.80;88.20;;;;;;5054206;28;20094;-66
2022/02/11 16:50:06;;;;;;;15.23;7.65;;;2.80;88.50;;;;;;5055037;28;20349;-67
2022/02/11 16:52:33;;;;;;;15.43;9.50;;;2.70;88.80;;;;;;5054752;28;20079;-67
2022/02/11 16:55:00;;;;;;;24.90;11.45;;;2.60;89.10;;;;;;5046757;28;20039;-67
2022/02/11 16:57:26;;;;;;;35.25;16.17;;;2.60;89.20;;;;;;5037003;28;20025;-67